sensor_id;sensor_type;location;lat;lon;timestamp;P1;durP1;ratioP1;P2;durP2;ratioP2
51499;SDS011;39101;53.478;6.158;2023-07-30T00:01:13;24.25;;;7.15;;
51499;SDS011;39101;53.478;6.158;2023-07-30T00:03:38;25.23;;;7.47;;
51499;SDS011;39101;53.478;6.158;2023-07-30T00:06:04;25.67;;;8.10;;
51499;SDS011;39101;53.478;6.158;2023-07-30T00:08:30;28.05;;;8.10;;
51499;SDS011;39101;53.478;6.158;2023-07-30T00:10:59;22.17;;;7.15;;
51499;SDS011;39101;53.478;6.158;2023-07-30T00:13:25;25.27;;;7.90;;
51499;SDS011;39101;53.478;6.158;2023-07-30T00:15:50;23.15;;;7.50;;
51499;SDS011;39101;53.478;6.158;2023-07-30T00:18:16;21.05;;;7.40;;
51499;SDS011;39101;53.478;6.158;2023-07-30T00:20:42;22.92;;;8.05;;
51499;SDS011;39101;53.478;6.158;2023-07-30T00:23:08;28.45;;;7.53;;
51499;SDS011;39101;53.478;6.158;2023-07-30T00:25:34;25.23;;;7.43;;
51499;SDS011;39101;53.478;6.158;2023-07-30T00:28:00;30.02;;;9.50;;
51499;SDS011;39101;53.478;6.158;2023-07-30T00:30:26;21.45;;;7.85;;
51499;SDS011;39101;53.478;6.158;2023-07-30T00:32:51;27.10;;;9.68;;
51499;SDS011;39101;53.478;6.158;2023-07-30T00:35:17;21.67;;;7.95;;
51499;SDS011;39101;53.478;6.158;2023-07-30T00:37:43;26.38;;;9.32;;
51499;SDS011;39101;53.478;6.158;2023-07-30T00:40:09;27.40;;;8.65;;
51499;SDS011;39101;53.478;6.158;2023-07-30T00:42:35;23.65;;;8.43;;
51499;SDS011;39101;53.478;6.158;2023-07-30T00:45:00;21.48;;;7.85;;
51499;SDS011;39101;53.478;6.158;2023-07-30T00:47:26;24.92;;;9.95;;
51499;SDS011;39101;53.478;6.158;2023-07-30T00:49:52;25.40;;;8.40;;
51499;SDS011;39101;53.478;6.158;2023-07-30T00:52:18;26.73;;;8.77;;
51499;SDS011;39101;53.478;6.158;2023-07-30T00:54:49;30.27;;;9.70;;
51499;SDS011;39101;53.478;6.158;2023-07-30T00:57:16;34.22;;;10.48;;
51499;SDS011;39101;53.478;6.158;2023-07-30T00:59:43;35.85;;;11.63;;
51499;SDS011;39101;53.478;6.158;2023-07-30T01:02:10;33.40;;;9.05;;
51499;SDS011;39101;53.478;6.158;2023-07-30T01:04:36;32.78;;;9.60;;
51499;SDS011;39101;53.478;6.158;2023-07-30T01:07:04;32.63;;;8.90;;
51499;SDS011;39101;53.478;6.158;2023-07-30T01:09:31;30.70;;;9.93;;
51499;SDS011;39101;53.478;6.158;2023-07-30T01:11:57;27.38;;;8.38;;
51499;SDS011;39101;53.478;6.158;2023-07-30T01:14:24;26.27;;;8.75;;
51499;SDS011;39101;53.478;6.158;2023-07-30T01:16:51;27.88;;;9.30;;
51499;SDS011;39101;53.478;6.158;2023-07-30T01:19:17;28.77;;;8.95;;
51499;SDS011;39101;53.478;6.158;2023-07-30T01:21:43;30.10;;;9.45;;
51499;SDS011;39101;53.478;6.158;2023-07-30T01:24:09;35.75;;;9.85;;
51499;SDS011;39101;53.478;6.158;2023-07-30T01:26:38;31.15;;;10.07;;
51499;SDS011;39101;53.478;6.158;2023-07-30T01:29:11;31.77;;;10.20;;
51499;SDS011;39101;53.478;6.158;2023-07-30T01:31:40;30.00;;;11.43;;
51499;SDS011;39101;53.478;6.158;2023-07-30T01:34:07;23.65;;;9.75;;
51499;SDS011;39101;53.478;6.158;2023-07-30T01:36:36;29.92;;;11.07;;
51499;SDS011;39101;53.478;6.158;2023-07-30T01:39:03;35.63;;;10.32;;
51499;SDS011;39101;53.478;6.158;2023-07-30T01:41:30;25.52;;;9.25;;
51499;SDS011;39101;53.478;6.158;2023-07-30T01:43:56;31.25;;;9.45;;
51499;SDS011;39101;53.478;6.158;2023-07-30T01:46:22;34.63;;;9.95;;
51499;SDS011;39101;53.478;6.158;2023-07-30T01:48:48;35.08;;;10.68;;
51499;SDS011;39101;53.478;6.158;2023-07-30T01:51:13;35.78;;;10.70;;
51499;SDS011;39101;53.478;6.158;2023-07-30T01:53:39;30.98;;;9.52;;
51499;SDS011;39101;53.478;6.158;2023-07-30T01:56:05;26.08;;;9.73;;
51499;SDS011;39101;53.478;6.158;2023-07-30T01:58:30;41.25;;;11.75;;
51499;SDS011;39101;53.478;6.158;2023-07-30T02:00:56;29.83;;;9.93;;
51499;SDS011;39101;53.478;6.158;2023-07-30T02:03:21;33.80;;;10.68;;
51499;SDS011;39101;53.478;6.158;2023-07-30T02:05:47;27.73;;;8.75;;
51499;SDS011;39101;53.478;6.158;2023-07-30T02:08:13;35.03;;;8.60;;
51499;SDS011;39101;53.478;6.158;2023-07-30T02:10:41;31.67;;;9.77;;
51499;SDS011;39101;53.478;6.158;2023-07-30T02:13:06;24.42;;;8.40;;
51499;SDS011;39101;53.478;6.158;2023-07-30T02:15:32;31.98;;;8.50;;
51499;SDS011;39101;53.478;6.158;2023-07-30T02:17:58;31.02;;;8.43;;
51499;SDS011;39101;53.478;6.158;2023-07-30T02:20:24;42.50;;;11.15;;
51499;SDS011;39101;53.478;6.158;2023-07-30T02:22:49;27.30;;;8.18;;
51499;SDS011;39101;53.478;6.158;2023-07-30T02:25:15;34.25;;;8.73;;
51499;SDS011;39101;53.478;6.158;2023-07-30T02:27:41;26.90;;;8.48;;
51499;SDS011;39101;53.478;6.158;2023-07-30T02:30:06;34.53;;;8.77;;
51499;SDS011;39101;53.478;6.158;2023-07-30T02:32:32;34.10;;;9.15;;
51499;SDS011;39101;53.478;6.158;2023-07-30T02:34:58;31.52;;;11.38;;
51499;SDS011;39101;53.478;6.158;2023-07-30T02:37:23;33.83;;;8.68;;
51499;SDS011;39101;53.478;6.158;2023-07-30T02:39:49;33.55;;;9.20;;
51499;SDS011;39101;53.478;6.158;2023-07-30T02:42:15;30.65;;;9.95;;
51499;SDS011;39101;53.478;6.158;2023-07-30T02:44:40;28.52;;;8.68;;
51499;SDS011;39101;53.478;6.158;2023-07-30T02:47:06;28.98;;;8.07;;
51499;SDS011;39101;53.478;6.158;2023-07-30T02:49:31;34.60;;;7.82;;
51499;SDS011;39101;53.478;6.158;2023-07-30T02:51:57;33.28;;;7.68;;
51499;SDS011;39101;53.478;6.158;2023-07-30T02:54:23;23.98;;;7.28;;
51499;SDS011;39101;53.478;6.158;2023-07-30T02:56:48;37.50;;;7.50;;
51499;SDS011;39101;53.478;6.158;2023-07-30T02:59:14;28.83;;;8.23;;
51499;SDS011;39101;53.478;6.158;2023-07-30T03:01:40;27.08;;;8.75;;
51499;SDS011;39101;53.478;6.158;2023-07-30T03:04:05;39.17;;;7.90;;
51499;SDS011;39101;53.478;6.158;2023-07-30T03:06:31;27.30;;;7.10;;
51499;SDS011;39101;53.478;6.158;2023-07-30T03:08:57;23.02;;;7.40;;
51499;SDS011;39101;53.478;6.158;2023-07-30T03:11:22;27.33;;;7.25;;
51499;SDS011;39101;53.478;6.158;2023-07-30T03:13:48;29.38;;;7.50;;
51499;SDS011;39101;53.478;6.158;2023-07-30T03:16:14;32.50;;;7.28;;
51499;SDS011;39101;53.478;6.158;2023-07-30T03:18:39;25.45;;;7.03;;
51499;SDS011;39101;53.478;6.158;2023-07-30T03:21:05;30.73;;;7.63;;
51499;SDS011;39101;53.478;6.158;2023-07-30T03:23:31;31.02;;;9.00;;
51499;SDS011;39101;53.478;6.158;2023-07-30T03:25:57;25.35;;;6.85;;
51499;SDS011;39101;53.478;6.158;2023-07-30T03:28:25;23.35;;;6.80;;
51499;SDS011;39101;53.478;6.158;2023-07-30T03:30:51;30.10;;;6.63;;
51499;SDS011;39101;53.478;6.158;2023-07-30T03:33:16;25.05;;;6.75;;
51499;SDS011;39101;53.478;6.158;2023-07-30T03:35:42;32.17;;;7.57;;
51499;SDS011;39101;53.478;6.158;2023-07-30T03:38:07;25.80;;;6.68;;
51499;SDS011;39101;53.478;6.158;2023-07-30T03:40:33;20.00;;;6.13;;
51499;SDS011;39101;53.478;6.158;2023-07-30T03:42:59;31.50;;;6.97;;
51499;SDS011;39101;53.478;6.158;2023-07-30T03:45:24;30.70;;;7.00;;
51499;SDS011;39101;53.478;6.158;2023-07-30T03:47:50;26.38;;;7.50;;
51499;SDS011;39101;53.478;6.158;2023-07-30T03:50:16;26.95;;;6.28;;
51499;SDS011;39101;53.478;6.158;2023-07-30T03:52:41;30.77;;;6.28;;
51499;SDS011;39101;53.478;6.158;2023-07-30T03:55:07;23.40;;;6.30;;
51499;SDS011;39101;53.478;6.158;2023-07-30T03:57:33;25.80;;;5.30;;
51499;SDS011;39101;53.478;6.158;2023-07-30T03:59:59;20.30;;;5.88;;
51499;SDS011;39101;53.478;6.158;2023-07-30T04:02:25;23.92;;;5.10;;
51499;SDS011;39101;53.478;6.158;2023-07-30T04:04:50;20.63;;;4.97;;
51499;SDS011;39101;53.478;6.158;2023-07-30T04:07:16;24.50;;;6.90;;
51499;SDS011;39101;53.478;6.158;2023-07-30T04:09:42;23.17;;;5.55;;
51499;SDS011;39101;53.478;6.158;2023-07-30T04:12:07;22.05;;;4.90;;
51499;SDS011;39101;53.478;6.158;2023-07-30T04:14:33;22.75;;;5.60;;
51499;SDS011;39101;53.478;6.158;2023-07-30T04:16:59;19.17;;;4.40;;
51499;SDS011;39101;53.478;6.158;2023-07-30T04:19:24;17.65;;;3.75;;
51499;SDS011;39101;53.478;6.158;2023-07-30T04:21:50;17.52;;;4.63;;
51499;SDS011;39101;53.478;6.158;2023-07-30T04:24:16;22.67;;;5.32;;
51499;SDS011;39101;53.478;6.158;2023-07-30T04:26:41;19.70;;;4.07;;
51499;SDS011;39101;53.478;6.158;2023-07-30T04:29:07;17.63;;;4.20;;
51499;SDS011;39101;53.478;6.158;2023-07-30T04:31:33;19.35;;;4.32;;
51499;SDS011;39101;53.478;6.158;2023-07-30T04:33:58;17.65;;;4.28;;
51499;SDS011;39101;53.478;6.158;2023-07-30T04:36:24;16.50;;;3.45;;
51499;SDS011;39101;53.478;6.158;2023-07-30T04:38:50;17.30;;;4.40;;
51499;SDS011;39101;53.478;6.158;2023-07-30T04:41:15;14.68;;;3.65;;
51499;SDS011;39101;53.478;6.158;2023-07-30T04:43:43;14.07;;;4.20;;
51499;SDS011;39101;53.478;6.158;2023-07-30T04:46:09;18.08;;;4.50;;
51499;SDS011;39101;53.478;6.158;2023-07-30T04:48:34;10.27;;;3.88;;
51499;SDS011;39101;53.478;6.158;2023-07-30T04:51:02;11.07;;;4.38;;
51499;SDS011;39101;53.478;6.158;2023-07-30T04:53:28;19.92;;;4.10;;
51499;SDS011;39101;53.478;6.158;2023-07-30T04:55:57;13.52;;;3.00;;
51499;SDS011;39101;53.478;6.158;2023-07-30T04:58:23;13.50;;;2.78;;
51499;SDS011;39101;53.478;6.158;2023-07-30T05:00:49;14.90;;;3.10;;
51499;SDS011;39101;53.478;6.158;2023-07-30T05:03:15;17.15;;;4.15;;
51499;SDS011;39101;53.478;6.158;2023-07-30T05:05:41;15.75;;;3.58;;
51499;SDS011;39101;53.478;6.158;2023-07-30T05:08:07;11.85;;;2.80;;
51499;SDS011;39101;53.478;6.158;2023-07-30T05:10:32;11.93;;;2.50;;
51499;SDS011;39101;53.478;6.158;2023-07-30T05:12:58;14.90;;;2.40;;
51499;SDS011;39101;53.478;6.158;2023-07-30T05:15:24;9.45;;;2.65;;
51499;SDS011;39101;53.478;6.158;2023-07-30T05:17:50;14.00;;;2.95;;
51499;SDS011;39101;53.478;6.158;2023-07-30T05:20:16;9.05;;;2.60;;
51499;SDS011;39101;53.478;6.158;2023-07-30T05:22:45;11.43;;;2.80;;
51499;SDS011;39101;53.478;6.158;2023-07-30T05:25:10;17.02;;;2.92;;
51499;SDS011;39101;53.478;6.158;2023-07-30T05:27:36;12.48;;;2.35;;
51499;SDS011;39101;53.478;6.158;2023-07-30T05:30:02;15.75;;;2.50;;
51499;SDS011;39101;53.478;6.158;2023-07-30T05:32:28;13.82;;;2.97;;
51499;SDS011;39101;53.478;6.158;2023-07-30T05:34:53;13.43;;;2.17;;
51499;SDS011;39101;53.478;6.158;2023-07-30T05:37:19;8.82;;;3.10;;
51499;SDS011;39101;53.478;6.158;2023-07-30T05:39:45;9.73;;;2.53;;
51499;SDS011;39101;53.478;6.158;2023-07-30T05:42:10;20.02;;;3.15;;
51499;SDS011;39101;53.478;6.158;2023-07-30T05:44:36;18.08;;;3.15;;
51499;SDS011;39101;53.478;6.158;2023-07-30T05:47:01;15.52;;;3.17;;
51499;SDS011;39101;53.478;6.158;2023-07-30T05:49:28;15.60;;;2.65;;
51499;SDS011;39101;53.478;6.158;2023-07-30T05:51:53;13.75;;;2.85;;
51499;SDS011;39101;53.478;6.158;2023-07-30T05:54:19;13.02;;;4.47;;
51499;SDS011;39101;53.478;6.158;2023-07-30T05:56:44;17.13;;;3.83;;
51499;SDS011;39101;53.478;6.158;2023-07-30T05:59:10;16.08;;;3.03;;
51499;SDS011;39101;53.478;6.158;2023-07-30T06:01:36;11.20;;;2.75;;
51499;SDS011;39101;53.478;6.158;2023-07-30T06:04:01;15.48;;;3.08;;
51499;SDS011;39101;53.478;6.158;2023-07-30T06:06:28;13.23;;;3.15;;
51499;SDS011;39101;53.478;6.158;2023-07-30T06:08:54;16.70;;;3.35;;
51499;SDS011;39101;53.478;6.158;2023-07-30T06:11:20;15.45;;;2.97;;
51499;SDS011;39101;53.478;6.158;2023-07-30T06:13:46;13.30;;;3.33;;
51499;SDS011;39101;53.478;6.158;2023-07-30T06:16:12;11.88;;;2.65;;
51499;SDS011;39101;53.478;6.158;2023-07-30T06:18:38;13.63;;;2.67;;
51499;SDS011;39101;53.478;6.158;2023-07-30T06:21:04;15.15;;;2.65;;
51499;SDS011;39101;53.478;6.158;2023-07-30T06:23:29;15.20;;;3.25;;
51499;SDS011;39101;53.478;6.158;2023-07-30T06:25:55;13.02;;;2.95;;
51499;SDS011;39101;53.478;6.158;2023-07-30T06:28:20;16.02;;;2.90;;
51499;SDS011;39101;53.478;6.158;2023-07-30T06:30:46;15.23;;;3.53;;
51499;SDS011;39101;53.478;6.158;2023-07-30T06:33:12;11.82;;;2.65;;
51499;SDS011;39101;53.478;6.158;2023-07-30T06:35:38;18.65;;;3.28;;
51499;SDS011;39101;53.478;6.158;2023-07-30T06:38:05;11.57;;;2.95;;
51499;SDS011;39101;53.478;6.158;2023-07-30T06:40:33;14.02;;;2.50;;
51499;SDS011;39101;53.478;6.158;2023-07-30T06:42:58;15.75;;;2.88;;
51499;SDS011;39101;53.478;6.158;2023-07-30T06:45:24;14.73;;;3.08;;
51499;SDS011;39101;53.478;6.158;2023-07-30T06:47:50;17.17;;;3.15;;
51499;SDS011;39101;53.478;6.158;2023-07-30T06:50:15;14.73;;;2.97;;
51499;SDS011;39101;53.478;6.158;2023-07-30T06:52:41;9.85;;;2.72;;
51499;SDS011;39101;53.478;6.158;2023-07-30T06:55:07;15.07;;;4.22;;
51499;SDS011;39101;53.478;6.158;2023-07-30T06:57:33;11.77;;;2.97;;
51499;SDS011;39101;53.478;6.158;2023-07-30T06:59:58;15.38;;;3.13;;
51499;SDS011;39101;53.478;6.158;2023-07-30T07:02:25;9.43;;;2.35;;
51499;SDS011;39101;53.478;6.158;2023-07-30T07:04:51;13.45;;;2.83;;
51499;SDS011;39101;53.478;6.158;2023-07-30T07:07:17;11.50;;;2.50;;
51499;SDS011;39101;53.478;6.158;2023-07-30T07:09:42;10.27;;;2.55;;
51499;SDS011;39101;53.478;6.158;2023-07-30T07:12:08;15.77;;;3.15;;
51499;SDS011;39101;53.478;6.158;2023-07-30T07:14:34;12.25;;;3.25;;
51499;SDS011;39101;53.478;6.158;2023-07-30T07:16:59;17.48;;;2.72;;
51499;SDS011;39101;53.478;6.158;2023-07-30T07:19:25;15.02;;;3.05;;
51499;SDS011;39101;53.478;6.158;2023-07-30T07:21:50;13.35;;;2.42;;
51499;SDS011;39101;53.478;6.158;2023-07-30T07:24:16;10.35;;;2.95;;
51499;SDS011;39101;53.478;6.158;2023-07-30T07:26:42;10.93;;;2.80;;
51499;SDS011;39101;53.478;6.158;2023-07-30T07:29:08;16.27;;;3.47;;
51499;SDS011;39101;53.478;6.158;2023-07-30T07:31:35;14.60;;;2.38;;
51499;SDS011;39101;53.478;6.158;2023-07-30T07:34:00;12.25;;;2.75;;
51499;SDS011;39101;53.478;6.158;2023-07-30T07:36:26;9.98;;;2.22;;
51499;SDS011;39101;53.478;6.158;2023-07-30T07:38:52;14.52;;;2.65;;
51499;SDS011;39101;53.478;6.158;2023-07-30T07:41:17;11.57;;;3.30;;
51499;SDS011;39101;53.478;6.158;2023-07-30T07:43:44;18.02;;;3.13;;
51499;SDS011;39101;53.478;6.158;2023-07-30T07:46:11;13.30;;;2.88;;
51499;SDS011;39101;53.478;6.158;2023-07-30T07:48:43;17.42;;;4.07;;
51499;SDS011;39101;53.478;6.158;2023-07-30T07:51:09;14.82;;;3.00;;
51499;SDS011;39101;53.478;6.158;2023-07-30T07:53:36;13.32;;;3.20;;
51499;SDS011;39101;53.478;6.158;2023-07-30T07:56:02;17.83;;;3.67;;
51499;SDS011;39101;53.478;6.158;2023-07-30T07:58:28;12.70;;;2.78;;
51499;SDS011;39101;53.478;6.158;2023-07-30T08:00:54;15.57;;;3.30;;
51499;SDS011;39101;53.478;6.158;2023-07-30T08:03:21;13.80;;;3.30;;
51499;SDS011;39101;53.478;6.158;2023-07-30T08:05:47;16.35;;;3.70;;
51499;SDS011;39101;53.478;6.158;2023-07-30T08:08:13;12.18;;;2.42;;
51499;SDS011;39101;53.478;6.158;2023-07-30T08:10:39;12.50;;;2.53;;
51499;SDS011;39101;53.478;6.158;2023-07-30T08:13:08;11.70;;;2.75;;
51499;SDS011;39101;53.478;6.158;2023-07-30T08:15:38;11.77;;;2.45;;
51499;SDS011;39101;53.478;6.158;2023-07-30T08:18:03;14.65;;;3.22;;
51499;SDS011;39101;53.478;6.158;2023-07-30T08:20:29;13.65;;;2.88;;
51499;SDS011;39101;53.478;6.158;2023-07-30T08:22:55;16.45;;;2.58;;
51499;SDS011;39101;53.478;6.158;2023-07-30T08:25:21;13.00;;;3.83;;
51499;SDS011;39101;53.478;6.158;2023-07-30T08:27:46;21.00;;;3.80;;
51499;SDS011;39101;53.478;6.158;2023-07-30T08:30:12;13.63;;;2.65;;
51499;SDS011;39101;53.478;6.158;2023-07-30T08:32:38;15.63;;;4.18;;
51499;SDS011;39101;53.478;6.158;2023-07-30T08:35:04;12.85;;;2.78;;
51499;SDS011;39101;53.478;6.158;2023-07-30T08:37:30;16.40;;;2.58;;
51499;SDS011;39101;53.478;6.158;2023-07-30T08:39:55;14.57;;;3.42;;
51499;SDS011;39101;53.478;6.158;2023-07-30T08:42:22;14.05;;;2.90;;
51499;SDS011;39101;53.478;6.158;2023-07-30T08:44:48;16.90;;;3.28;;
51499;SDS011;39101;53.478;6.158;2023-07-30T08:47:13;16.48;;;3.35;;
51499;SDS011;39101;53.478;6.158;2023-07-30T08:49:39;14.02;;;2.85;;
51499;SDS011;39101;53.478;6.158;2023-07-30T08:52:06;12.10;;;2.90;;
51499;SDS011;39101;53.478;6.158;2023-07-30T08:54:33;14.25;;;2.83;;
51499;SDS011;39101;53.478;6.158;2023-07-30T08:57:01;16.40;;;3.83;;
51499;SDS011;39101;53.478;6.158;2023-07-30T08:59:33;9.55;;;3.00;;
51499;SDS011;39101;53.478;6.158;2023-07-30T09:02:03;13.15;;;2.95;;
51499;SDS011;39101;53.478;6.158;2023-07-30T09:04:33;14.45;;;2.85;;
51499;SDS011;39101;53.478;6.158;2023-07-30T09:07:01;17.73;;;3.38;;
51499;SDS011;39101;53.478;6.158;2023-07-30T09:09:27;16.80;;;4.25;;
51499;SDS011;39101;53.478;6.158;2023-07-30T09:11:52;14.82;;;2.65;;
51499;SDS011;39101;53.478;6.158;2023-07-30T09:14:19;14.25;;;3.05;;
51499;SDS011;39101;53.478;6.158;2023-07-30T09:16:46;13.88;;;2.78;;
51499;SDS011;39101;53.478;6.158;2023-07-30T09:19:15;15.63;;;2.75;;
51499;SDS011;39101;53.478;6.158;2023-07-30T09:21:42;13.48;;;3.10;;
51499;SDS011;39101;53.478;6.158;2023-07-30T09:24:08;11.88;;;2.70;;
51499;SDS011;39101;53.478;6.158;2023-07-30T09:26:43;13.48;;;2.55;;
51499;SDS011;39101;53.478;6.158;2023-07-30T09:29:10;11.95;;;2.90;;
51499;SDS011;39101;53.478;6.158;2023-07-30T09:31:46;14.13;;;3.20;;
51499;SDS011;39101;53.478;6.158;2023-07-30T09:34:17;15.75;;;3.40;;
51499;SDS011;39101;53.478;6.158;2023-07-30T09:36:46;16.10;;;2.72;;
51499;SDS011;39101;53.478;6.158;2023-07-30T09:39:17;16.77;;;3.08;;
51499;SDS011;39101;53.478;6.158;2023-07-30T09:41:51;10.85;;;2.95;;
51499;SDS011;39101;53.478;6.158;2023-07-30T09:44:24;14.98;;;3.05;;
51499;SDS011;39101;53.478;6.158;2023-07-30T09:46:50;14.77;;;3.13;;
51499;SDS011;39101;53.478;6.158;2023-07-30T09:49:16;15.07;;;3.13;;
51499;SDS011;39101;53.478;6.158;2023-07-30T09:51:43;14.77;;;2.70;;
51499;SDS011;39101;53.478;6.158;2023-07-30T09:54:10;10.80;;;3.08;;
51499;SDS011;39101;53.478;6.158;2023-07-30T09:56:37;12.23;;;2.67;;
51499;SDS011;39101;53.478;6.158;2023-07-30T09:59:08;15.77;;;2.88;;
51499;SDS011;39101;53.478;6.158;2023-07-30T10:01:38;12.88;;;2.90;;
51499;SDS011;39101;53.478;6.158;2023-07-30T10:04:10;13.95;;;3.88;;
51499;SDS011;39101;53.478;6.158;2023-07-30T10:06:48;14.38;;;3.03;;
51499;SDS011;39101;53.478;6.158;2023-07-30T10:09:27;11.30;;;3.20;;
51499;SDS011;39101;53.478;6.158;2023-07-30T10:11:59;13.13;;;2.97;;
51499;SDS011;39101;53.478;6.158;2023-07-30T10:14:26;13.57;;;3.50;;
51499;SDS011;39101;53.478;6.158;2023-07-30T10:16:53;20.35;;;4.70;;
51499;SDS011;39101;53.478;6.158;2023-07-30T10:19:27;10.68;;;2.60;;
51499;SDS011;39101;53.478;6.158;2023-07-30T10:22:27;14.23;;;2.97;;
51499;SDS011;39101;53.478;6.158;2023-07-30T10:24:57;17.88;;;3.05;;
51499;SDS011;39101;53.478;6.158;2023-07-30T10:27:35;10.32;;;2.95;;
51499;SDS011;39101;53.478;6.158;2023-07-30T10:30:10;12.68;;;3.08;;
51499;SDS011;39101;53.478;6.158;2023-07-30T10:38:19;15.50;;;3.25;;
51499;SDS011;39101;53.478;6.158;2023-07-30T10:41:00;15.93;;;2.80;;
51499;SDS011;39101;53.478;6.158;2023-07-30T10:43:45;18.67;;;3.25;;
51499;SDS011;39101;53.478;6.158;2023-07-30T10:46:13;17.30;;;3.38;;
51499;SDS011;39101;53.478;6.158;2023-07-30T10:48:40;14.00;;;2.80;;
51499;SDS011;39101;53.478;6.158;2023-07-30T10:51:14;14.70;;;3.15;;
51499;SDS011;39101;53.478;6.158;2023-07-30T10:53:42;12.25;;;3.22;;
51499;SDS011;39101;53.478;6.158;2023-07-30T10:56:09;11.60;;;2.70;;
51499;SDS011;39101;53.478;6.158;2023-07-30T10:58:36;13.93;;;2.95;;
51499;SDS011;39101;53.478;6.158;2023-07-30T11:01:05;15.70;;;3.67;;
51499;SDS011;39101;53.478;6.158;2023-07-30T11:03:32;11.80;;;2.90;;
51499;SDS011;39101;53.478;6.158;2023-07-30T11:05:59;15.73;;;3.17;;
51499;SDS011;39101;53.478;6.158;2023-07-30T11:11:01;16.90;;;3.47;;
51499;SDS011;39101;53.478;6.158;2023-07-30T11:13:27;15.93;;;3.42;;
51499;SDS011;39101;53.478;6.158;2023-07-30T11:15:53;15.40;;;3.13;;
51499;SDS011;39101;53.478;6.158;2023-07-30T11:18:19;13.15;;;2.80;;
51499;SDS011;39101;53.478;6.158;2023-07-30T11:20:45;13.85;;;2.95;;
51499;SDS011;39101;53.478;6.158;2023-07-30T11:23:20;14.85;;;2.60;;
51499;SDS011;39101;53.478;6.158;2023-07-30T11:25:50;13.73;;;3.80;;
51499;SDS011;39101;53.478;6.158;2023-07-30T11:28:29;11.30;;;2.43;;
51499;SDS011;39101;53.478;6.158;2023-07-30T11:30:59;18.08;;;3.90;;
51499;SDS011;39101;53.478;6.158;2023-07-30T11:33:27;16.88;;;3.33;;
51499;SDS011;39101;53.478;6.158;2023-07-30T11:35:54;16.38;;;3.28;;
51499;SDS011;39101;53.478;6.158;2023-07-30T11:38:22;16.17;;;3.88;;
51499;SDS011;39101;53.478;6.158;2023-07-30T11:40:55;13.98;;;2.45;;
51499;SDS011;39101;53.478;6.158;2023-07-30T11:43:21;13.75;;;2.83;;
51499;SDS011;39101;53.478;6.158;2023-07-30T11:45:47;15.23;;;2.75;;
51499;SDS011;39101;53.478;6.158;2023-07-30T11:48:13;14.55;;;2.92;;
51499;SDS011;39101;53.478;6.158;2023-07-30T11:50:57;12.60;;;2.72;;
51499;SDS011;39101;53.478;6.158;2023-07-30T11:53:29;19.77;;;2.70;;
51499;SDS011;39101;53.478;6.158;2023-07-30T11:56:16;10.02;;;2.22;;
51499;SDS011;39101;53.478;6.158;2023-07-30T11:58:47;9.43;;;2.13;;
51499;SDS011;39101;53.478;6.158;2023-07-30T12:01:17;16.00;;;3.13;;
51499;SDS011;39101;53.478;6.158;2023-07-30T12:03:43;8.98;;;2.50;;
51499;SDS011;39101;53.478;6.158;2023-07-30T12:06:09;9.48;;;2.72;;
51499;SDS011;39101;53.478;6.158;2023-07-30T12:08:36;14.05;;;2.92;;
51499;SDS011;39101;53.478;6.158;2023-07-30T12:11:02;13.38;;;3.75;;
51499;SDS011;39101;53.478;6.158;2023-07-30T12:13:30;17.67;;;3.60;;
51499;SDS011;39101;53.478;6.158;2023-07-30T12:15:56;13.77;;;2.90;;
51499;SDS011;39101;53.478;6.158;2023-07-30T12:18:23;11.05;;;3.00;;
51499;SDS011;39101;53.478;6.158;2023-07-30T12:20:50;10.60;;;2.33;;
51499;SDS011;39101;53.478;6.158;2023-07-30T12:23:17;13.25;;;2.47;;
51499;SDS011;39101;53.478;6.158;2023-07-30T12:25:42;12.98;;;2.33;;
51499;SDS011;39101;53.478;6.158;2023-07-30T12:28:09;9.00;;;2.25;;
51499;SDS011;39101;53.478;6.158;2023-07-30T12:30:34;12.90;;;2.22;;
51499;SDS011;39101;53.478;6.158;2023-07-30T12:33:02;9.93;;;2.65;;
51499;SDS011;39101;53.478;6.158;2023-07-30T12:35:28;10.02;;;2.88;;
51499;SDS011;39101;53.478;6.158;2023-07-30T12:37:54;16.73;;;2.67;;
51499;SDS011;39101;53.478;6.158;2023-07-30T12:40:20;11.80;;;2.35;;
51499;SDS011;39101;53.478;6.158;2023-07-30T12:42:45;14.77;;;3.38;;
51499;SDS011;39101;53.478;6.158;2023-07-30T12:45:11;13.18;;;2.92;;
51499;SDS011;39101;53.478;6.158;2023-07-30T12:47:37;11.70;;;2.40;;
51499;SDS011;39101;53.478;6.158;2023-07-30T12:50:03;7.68;;;1.70;;
51499;SDS011;39101;53.478;6.158;2023-07-30T12:52:29;14.68;;;2.70;;
51499;SDS011;39101;53.478;6.158;2023-07-30T12:54:56;11.52;;;2.08;;
51499;SDS011;39101;53.478;6.158;2023-07-30T12:57:21;9.32;;;2.80;;
51499;SDS011;39101;53.478;6.158;2023-07-30T12:59:47;13.18;;;2.10;;
51499;SDS011;39101;53.478;6.158;2023-07-30T13:02:13;13.68;;;3.25;;
51499;SDS011;39101;53.478;6.158;2023-07-30T13:04:38;11.15;;;2.30;;
51499;SDS011;39101;53.478;6.158;2023-07-30T13:07:04;12.25;;;2.22;;
51499;SDS011;39101;53.478;6.158;2023-07-30T13:09:30;12.02;;;2.30;;
51499;SDS011;39101;53.478;6.158;2023-07-30T13:11:56;10.77;;;2.15;;
51499;SDS011;39101;53.478;6.158;2023-07-30T13:14:22;13.57;;;2.42;;
51499;SDS011;39101;53.478;6.158;2023-07-30T13:16:47;11.75;;;2.42;;
51499;SDS011;39101;53.478;6.158;2023-07-30T13:19:13;7.68;;;2.10;;
51499;SDS011;39101;53.478;6.158;2023-07-30T13:21:38;10.70;;;2.20;;
51499;SDS011;39101;53.478;6.158;2023-07-30T13:24:04;13.77;;;2.25;;
51499;SDS011;39101;53.478;6.158;2023-07-30T13:26:30;14.48;;;2.20;;
51499;SDS011;39101;53.478;6.158;2023-07-30T13:28:55;10.15;;;2.33;;
51499;SDS011;39101;53.478;6.158;2023-07-30T13:31:21;9.88;;;1.60;;
51499;SDS011;39101;53.478;6.158;2023-07-30T13:33:47;7.57;;;1.98;;
51499;SDS011;39101;53.478;6.158;2023-07-30T13:36:13;15.70;;;2.58;;
51499;SDS011;39101;53.478;6.158;2023-07-30T13:38:39;13.88;;;2.92;;
51499;SDS011;39101;53.478;6.158;2023-07-30T13:41:05;13.07;;;2.30;;
51499;SDS011;39101;53.478;6.158;2023-07-30T13:43:31;9.10;;;2.22;;
51499;SDS011;39101;53.478;6.158;2023-07-30T13:45:57;11.20;;;1.95;;
51499;SDS011;39101;53.478;6.158;2023-07-30T13:48:26;8.60;;;1.77;;
51499;SDS011;39101;53.478;6.158;2023-07-30T13:50:52;7.75;;;2.15;;
51499;SDS011;39101;53.478;6.158;2023-07-30T13:53:18;9.55;;;1.63;;
51499;SDS011;39101;53.478;6.158;2023-07-30T13:55:44;8.57;;;1.42;;
51499;SDS011;39101;53.478;6.158;2023-07-30T13:58:10;7.88;;;1.52;;
51499;SDS011;39101;53.478;6.158;2023-07-30T14:00:36;7.10;;;1.70;;
51499;SDS011;39101;53.478;6.158;2023-07-30T14:03:05;9.30;;;2.55;;
51499;SDS011;39101;53.478;6.158;2023-07-30T14:05:30;8.63;;;1.98;;
51499;SDS011;39101;53.478;6.158;2023-07-30T14:07:56;11.23;;;1.85;;
51499;SDS011;39101;53.478;6.158;2023-07-30T14:10:22;9.57;;;1.80;;
51499;SDS011;39101;53.478;6.158;2023-07-30T14:12:48;9.25;;;1.60;;
51499;SDS011;39101;53.478;6.158;2023-07-30T14:15:14;11.73;;;2.10;;
51499;SDS011;39101;53.478;6.158;2023-07-30T14:17:40;10.07;;;2.30;;
51499;SDS011;39101;53.478;6.158;2023-07-30T14:20:07;12.90;;;3.13;;
51499;SDS011;39101;53.478;6.158;2023-07-30T14:22:33;9.52;;;2.15;;
51499;SDS011;39101;53.478;6.158;2023-07-30T14:24:59;10.45;;;2.13;;
51499;SDS011;39101;53.478;6.158;2023-07-30T14:27:25;8.63;;;2.05;;
51499;SDS011;39101;53.478;6.158;2023-07-30T14:29:51;11.10;;;1.95;;
51499;SDS011;39101;53.478;6.158;2023-07-30T14:32:17;8.88;;;2.00;;
51499;SDS011;39101;53.478;6.158;2023-07-30T14:34:44;10.77;;;2.05;;
51499;SDS011;39101;53.478;6.158;2023-07-30T14:37:10;12.85;;;2.83;;
51499;SDS011;39101;53.478;6.158;2023-07-30T14:39:36;11.73;;;1.92;;
51499;SDS011;39101;53.478;6.158;2023-07-30T14:42:01;14.85;;;3.22;;